Time;durP1;ratioP1;P1;durP2;ratioP2;P2;SDS_P1;SDS_P2;PMS_P1;PMS_P2;Temp;Humidity;BMP_temperature;BMP_pressure;BME280_temperature;BME280_humidity;BME280_pressure;Samples;Min_cycle;Max_cycle;Signal;HPM_P1;HPM_P2
2021/08/30 00:01:03;;;;;;;0.80;0.80;;;;;;;;;;5032491;28;20053;-78
2021/08/30 00:03:31;;;;;;;3.53;0.88;;;;;;;;;;5064521;28;20049;-78
2021/08/30 00:05:58;;;;;;;0.70;0.70;;;;;;;;;;5030722;28;20041;-77
2021/08/30 00:08:25;;;;;;;0.70;0.70;;;;;;;;;;5063533;28;20044;-77
2021/08/30 00:10:51;;;;;;;1.08;0.70;;;;;;;;;;5027501;28;20551;-77
2021/08/30 00:13:18;;;;;;;0.70;0.70;;;;;;;;;;5029146;28;20033;-77
2021/08/30 00:15:45;;;;;;;0.70;0.70;;;;;;;;;;5040882;28;20069;-77
2021/08/30 00:18:12;;;;;;;0.90;0.90;;;;;;;;;;5028423;28;20044;-77
2021/08/30 00:20:39;;;;;;;0.73;0.73;;;;;;;;;;5028680;28;20050;-77
2021/08/30 00:23:06;;;;;;;0.80;0.80;;;;;;;;;;5037047;28;20131;-77
2021/08/30 00:25:33;;;;;;;0.70;0.70;;;;;;;;;;5042411;28;20478;-77
2021/08/30 00:28:00;;;;;;;0.82;0.70;;;;;;;;;;5032920;28;20044;-77
2021/08/30 00:30:27;;;;;;;0.70;0.70;;;;;;;;;;5045607;28;20428;-77
2021/08/30 00:32:54;;;;;;;1.13;1.13;;;;;;;;;;5013747;28;20049;-77
2021/08/30 00:35:21;;;;;;;0.80;0.80;;;;;;;;;;5012768;28;20037;-77
2021/08/30 00:37:48;;;;;;;2.15;0.80;;;;;;;;;;5029191;28;20065;-77
2021/08/30 00:40:15;;;;;;;0.70;0.70;;;;;;;;;;5031979;28;20052;-77
2021/08/30 00:42:46;;;;;;;0.75;0.75;;;;;;;;;;5029969;28;20068;-77
2021/08/30 00:45:14;;;;;;;0.80;0.80;;;;;;;;;;5020394;28;20050;-77
2021/08/30 00:47:41;;;;;;;0.70;0.70;;;;;;;;;;5029138;28;20469;-77
2021/08/30 00:50:09;;;;;;;0.80;0.80;;;;;;;;;;5060298;28;20037;-77
2021/08/30 00:52:36;;;;;;;0.80;0.80;;;;;;;;;;5030341;28;20037;-77
2021/08/30 00:55:04;;;;;;;0.80;0.80;;;;;;;;;;5059669;28;20045;-77
2021/08/30 01:01:22;;;;;;;0.80;0.80;;;;;;;;;;5029257;28;20028;-77
2021/08/30 01:03:50;;;;;;;0.80;0.80;;;;;;;;;;5027538;28;20060;-77
2021/08/30 01:06:35;;;;;;;0.70;0.70;;;;;;;;;;5060842;28;20047;-77
2021/08/30 01:09:09;;;;;;;0.80;0.80;;;;;;;;;;5030841;28;20544;-77
2021/08/30 01:11:39;;;;;;;2.15;0.70;;;;;;;;;;5026931;28;20029;-77
2021/08/30 01:14:09;;;;;;;0.80;0.80;;;;;;;;;;5028389;28;20037;-78
2021/08/30 01:16:37;;;;;;;0.80;0.80;;;;;;;;;;5066311;28;20057;-78
2021/08/30 01:19:09;;;;;;;0.70;0.70;;;;;;;;;;5028718;28;20037;-78
2021/08/30 01:21:40;;;;;;;1.65;0.90;;;;;;;;;;5030181;28;20045;-78
2021/08/30 01:24:07;;;;;;;1.30;0.70;;;;;;;;;;5031292;28;20406;-78
2021/08/30 01:26:36;;;;;;;1.65;1.00;;;;;;;;;;5027095;28;20133;-78
2021/08/30 01:29:03;;;;;;;0.95;0.80;;;;;;;;;;5028528;28;20394;-77
2021/08/30 01:31:48;;;;;;;1.55;0.80;;;;;;;;;;5023541;28;20036;-77
2021/08/30 01:34:16;;;;;;;0.70;0.70;;;;;;;;;;5027416;28;20029;-77
2021/08/30 01:36:44;;;;;;;0.75;0.75;;;;;;;;;;5029538;28;20071;-77
2021/08/30 01:39:11;;;;;;;0.70;0.70;;;;;;;;;;5029629;28;20049;-77
2021/08/30 01:41:38;;;;;;;0.70;0.70;;;;;;;;;;5035912;28;20045;-77
2021/08/30 01:44:06;;;;;;;1.33;1.00;;;;;;;;;;5027848;28;20068;-77
2021/08/30 01:46:33;;;;;;;1.40;0.73;;;;;;;;;;5054027;28;20068;-78
2021/08/30 01:49:01;;;;;;;0.80;0.80;;;;;;;;;;5026398;28;20044;-78
2021/08/30 01:51:28;;;;;;;0.80;0.80;;;;;;;;;;5029114;28;20029;-78
2021/08/30 01:53:55;;;;;;;1.00;0.90;;;;;;;;;;5030133;28;20038;-78
2021/08/30 01:56:25;;;;;;;0.70;0.70;;;;;;;;;;5028718;28;20053;-78
2021/08/30 02:01:38;;;;;;;0.80;0.80;;;;;;;;;;5020336;28;20168;-78
2021/08/30 02:04:05;;;;;;;0.70;0.70;;;;;;;;;;5025555;28;20390;-78
2021/08/30 02:06:33;;;;;;;0.70;0.70;;;;;;;;;;5027289;28;20053;-78
2021/08/30 02:09:00;;;;;;;1.85;0.80;;;;;;;;;;5035115;28;20040;-78
2021/08/30 02:11:35;;;;;;;1.20;0.80;;;;;;;;;;5010609;28;20048;-78
2021/08/30 02:14:07;;;;;;;0.80;0.80;;;;;;;;;;5027254;28;20045;-78
2021/08/30 02:16:34;;;;;;;0.80;0.80;;;;;;;;;;5026928;28;20026;-78
2021/08/30 02:19:20;;;;;;;0.80;0.80;;;;;;;;;;5031927;28;20052;-78
2021/08/30 02:21:50;;;;;;;0.80;0.80;;;;;;;;;;5029614;28;20052;-78
2021/08/30 02:24:24;;;;;;;0.90;0.90;;;;;;;;;;5028505;28;20461;-78
2021/08/30 02:30:42;;;;;;;0.90;0.90;;;;;;;;;;5029049;28;20040;-78
2021/08/30 02:33:10;;;;;;;1.10;1.10;;;;;;;;;;5026357;28;20061;-78
2021/08/30 02:35:38;;;;;;;0.98;0.98;;;;;;;;;;5025134;28;20060;-78
2021/08/30 02:38:05;;;;;;;1.13;0.98;;;;;;;;;;5060852;28;20406;-77
2021/08/30 02:40:33;;;;;;;1.00;1.00;;;;;;;;;;5026644;28;20038;-77
2021/08/30 02:43:01;;;;;;;0.85;0.85;;;;;;;;;;5038435;28;20095;-77
2021/08/30 02:45:28;;;;;;;0.85;0.85;;;;;;;;;;5026994;28;20034;-77
2021/08/30 02:47:59;;;;;;;0.90;0.90;;;;;;;;;;5028423;28;20462;-77
2021/08/30 02:50:27;;;;;;;0.98;0.98;;;;;;;;;;5028330;28;20049;-77
2021/08/30 02:52:55;;;;;;;7.00;1.42;;;;;;;;;;5029538;28;20140;-77
2021/08/30 02:55:22;;;;;;;1.73;0.90;;;;;;;;;;5029047;28;20042;-78
2021/08/30 02:57:49;;;;;;;1.27;1.27;;;;;;;;;;5040978;28;20054;-78
2021/08/30 03:00:17;;;;;;;0.90;0.90;;;;;;;;;;5027491;28;20068;-78
2021/08/30 03:02:44;;;;;;;0.70;0.70;;;;;;;;;;5031360;28;20046;-78
2021/08/30 03:05:12;;;;;;;0.90;0.90;;;;;;;;;;5030419;28;20055;-77
2021/08/30 03:07:39;;;;;;;0.90;0.90;;;;;;;;;;5032272;28;20071;-77
2021/08/30 03:10:06;;;;;;;0.95;0.95;;;;;;;;;;5031036;28;20410;-77
2021/08/30 03:12:35;;;;;;;1.20;0.90;;;;;;;;;;5033079;28;20041;-77
2021/08/30 03:15:04;;;;;;;1.25;0.95;;;;;;;;;;5032041;28;20037;-77
2021/08/30 03:17:32;;;;;;;0.90;0.90;;;;;;;;;;5029354;28;20223;-77
2021/08/30 03:19:59;;;;;;;2.47;1.00;;;;;;;;;;5024580;28;20092;-77
2021/08/30 03:22:26;;;;;;;0.98;0.98;;;;;;;;;;5034262;28;20532;-77
2021/08/30 03:24:54;;;;;;;1.48;0.90;;;;;;;;;;5031086;28;20041;-77
2021/08/30 03:27:20;;;;;;;1.00;1.00;;;;;;;;;;5031982;28;20046;-77
2021/08/30 03:29:47;;;;;;;1.20;1.20;;;;;;;;;;5030374;28;20037;-77
2021/08/30 03:32:15;;;;;;;1.85;1.10;;;;;;;;;;5022490;28;20030;-77
2021/08/30 03:34:43;;;;;;;1.50;1.10;;;;;;;;;;5023569;28;20034;-78
2021/08/30 03:37:10;;;;;;;1.63;1.63;;;;;;;;;;5032283;28;20049;-78
2021/08/30 03:39:38;;;;;;;2.80;2.80;;;;;;;;;;5015200;28;20494;-78
2021/08/30 03:42:05;;;;;;;3.40;3.40;;;;;;;;;;5031240;28;20103;-78
2021/08/30 03:44:33;;;;;;;3.28;3.28;;;;;;;;;;5032012;28;20061;-77
2021/08/30 03:47:00;;;;;;;3.17;3.17;;;;;;;;;;5030870;28;20038;-77
2021/08/30 03:49:28;;;;;;;3.10;2.95;;;;;;;;;;5031634;28;20083;-77
2021/08/30 03:51:58;;;;;;;2.35;2.35;;;;;;;;;;5031954;28;20042;-77
2021/08/30 03:54:26;;;;;;;1.83;1.73;;;;;;;;;;5033109;28;20521;-78
2021/08/30 03:56:53;;;;;;;1.50;1.50;;;;;;;;;;5045694;28;20129;-78
2021/08/30 03:59:21;;;;;;;2.40;1.23;;;;;;;;;;5030828;28;20046;-78
2021/08/30 04:01:50;;;;;;;2.80;1.10;;;;;;;;;;5032229;28;20041;-78
2021/08/30 04:04:20;;;;;;;0.90;0.90;;;;;;;;;;5033327;28;20049;-78
2021/08/30 04:06:47;;;;;;;0.90;0.90;;;;;;;;;;5030373;28;20049;-78
2021/08/30 04:09:18;;;;;;;1.45;0.95;;;;;;;;;;5028194;28;20095;-78
2021/08/30 04:11:45;;;;;;;0.90;0.90;;;;;;;;;;5027304;28;20084;-78
2021/08/30 04:14:12;;;;;;;1.00;1.00;;;;;;;;;;5025850;28;20048;-78
2021/08/30 04:16:40;;;;;;;1.80;0.98;;;;;;;;;;5029221;28;20040;-78
2021/08/30 04:19:07;;;;;;;1.00;1.00;;;;;;;;;;5024877;28;20034;-78
2021/08/30 04:21:34;;;;;;;1.10;1.10;;;;;;;;;;5025873;28;20079;-78
2021/08/30 04:24:01;;;;;;;1.55;0.98;;;;;;;;;;5051689;28;20100;-78
2021/08/30 04:26:27;;;;;;;1.77;0.88;;;;;;;;;;5027521;28;20041;-78
2021/08/30 04:28:54;;;;;;;0.80;0.80;;;;;;;;;;5037172;28;20088;-78
2021/08/30 04:31:21;;;;;;;1.50;1.00;;;;;;;;;;5062579;28;20041;-78
2021/08/30 04:33:49;;;;;;;1.95;1.00;;;;;;;;;;5061200;28;20036;-78
2021/08/30 04:36:15;;;;;;;0.95;0.95;;;;;;;;;;5031339;28;20041;-78
2021/08/30 04:38:42;;;;;;;1.00;1.00;;;;;;;;;;5027416;28;20085;-77
2021/08/30 04:41:09;;;;;;;0.80;0.80;;;;;;;;;;5056555;28;20049;-77
2021/08/30 04:43:36;;;;;;;0.90;0.90;;;;;;;;;;5030609;28;20033;-77
2021/08/30 04:46:03;;;;;;;0.90;0.90;;;;;;;;;;5028113;28;20457;-77
2021/08/30 04:48:29;;;;;;;1.02;1.02;;;;;;;;;;5032036;28;20045;-77
2021/08/30 04:50:56;;;;;;;1.00;1.00;;;;;;;;;;5030350;28;20033;-77
2021/08/30 04:53:23;;;;;;;0.93;0.93;;;;;;;;;;5030438;28;20045;-77
2021/08/30 04:55:50;;;;;;;1.00;1.00;;;;;;;;;;5031690;28;20087;-77
2021/08/30 04:58:16;;;;;;;4.65;2.35;;;;;;;;;;5029060;28;20045;-77
2021/08/30 05:00:43;;;;;;;2.40;2.05;;;;;;;;;;5031180;28;20033;-77
2021/08/30 05:03:10;;;;;;;1.52;1.52;;;;;;;;;;5044713;28;20077;-77
2021/08/30 05:05:37;;;;;;;2.00;1.42;;;;;;;;;;5031639;28;20642;-77
2021/08/30 05:08:04;;;;;;;1.30;1.20;;;;;;;;;;5029754;28;20041;-77
2021/08/30 05:10:30;;;;;;;2.92;1.27;;;;;;;;;;5026981;28;20045;-77
2021/08/30 05:12:57;;;;;;;1.27;1.20;;;;;;;;;;5065178;28;20123;-77
2021/08/30 05:15:25;;;;;;;0.90;0.90;;;;;;;;;;5022416;28;20115;-77
2021/08/30 05:17:52;;;;;;;1.38;1.38;;;;;;;;;;5022795;28;20087;-77
2021/08/30 05:20:19;;;;;;;1.58;0.93;;;;;;;;;;5057481;28;20382;-77
2021/08/30 05:22:46;;;;;;;1.05;1.05;;;;;;;;;;5060051;28;20478;-77
2021/08/30 05:25:13;;;;;;;1.00;1.00;;;;;;;;;;5023329;28;20041;-77
2021/08/30 05:27:41;;;;;;;1.08;1.00;;;;;;;;;;5027748;28;20049;-77
2021/08/30 05:30:08;;;;;;;1.30;1.20;;;;;;;;;;5055816;28;20413;-77
2021/08/30 05:32:34;;;;;;;1.63;1.08;;;;;;;;;;5031129;28;20080;-77
2021/08/30 05:35:01;;;;;;;4.63;1.20;;;;;;;;;;5030460;28;20037;-77
2021/08/30 05:37:28;;;;;;;1.67;1.30;;;;;;;;;;5030095;28;20443;-77
2021/08/30 05:39:55;;;;;;;3.85;1.30;;;;;;;;;;5027764;28;20058;-77
2021/08/30 05:42:22;;;;;;;3.55;1.10;;;;;;;;;;5029579;28;20430;-77
2021/08/30 05:44:48;;;;;;;1.00;1.00;;;;;;;;;;5030249;28;20041;-77
2021/08/30 05:47:15;;;;;;;0.90;0.90;;;;;;;;;;5030458;28;20038;-77
2021/08/30 05:49:42;;;;;;;3.53;1.00;;;;;;;;;;5057387;28;20045;-77
2021/08/30 05:52:12;;;;;;;1.40;1.10;;;;;;;;;;5030954;28;20069;-78
2021/08/30 05:54:39;;;;;;;1.25;0.98;;;;;;;;;;5031110;28;20425;-78
2021/08/30 05:57:06;;;;;;;0.93;0.93;;;;;;;;;;5020690;28;20034;-78
2021/08/30 05:59:36;;;;;;;0.88;0.88;;;;;;;;;;5029678;28;20092;-78
2021/08/30 06:02:03;;;;;;;0.90;0.90;;;;;;;;;;5028759;28;20083;-78
2021/08/30 06:04:30;;;;;;;0.90;0.90;;;;;;;;;;5028010;28;20051;-78
2021/08/30 06:06:57;;;;;;;3.10;0.95;;;;;;;;;;5028356;28;20044;-78
2021/08/30 06:09:24;;;;;;;1.00;1.00;;;;;;;;;;5027214;28;20091;-78
2021/08/30 06:11:51;;;;;;;0.90;0.90;;;;;;;;;;5027733;28;20041;-78
2021/08/30 06:14:18;;;;;;;1.15;1.08;;;;;;;;;;5051269;28;20087;-78
2021/08/30 06:16:45;;;;;;;3.60;1.10;;;;;;;;;;5030316;28;20061;-78
2021/08/30 06:19:12;;;;;;;1.08;1.00;;;;;;;;;;5034364;28;20061;-78
2021/08/30 06:21:38;;;;;;;2.17;1.00;;;;;;;;;;5060059;28;20049;-78
2021/08/30 06:24:06;;;;;;;1.17;1.17;;;;;;;;;;5029006;28;20049;-78
2021/08/30 06:26:33;;;;;;;0.90;0.90;;;;;;;;;;5028399;28;20041;-78
2021/08/30 06:29:00;;;;;;;0.82;0.82;;;;;;;;;;5028793;28;20092;-78
2021/08/30 06:31:26;;;;;;;2.40;0.90;;;;;;;;;;5027374;28;20482;-78
2021/08/30 06:33:55;;;;;;;0.80;0.80;;;;;;;;;;5020721;28;20042;-78
2021/08/30 06:36:22;;;;;;;2.17;0.80;;;;;;;;;;5041939;28;20054;-78
2021/08/30 06:38:49;;;;;;;2.15;0.93;;;;;;;;;;5033444;28;20057;-78
2021/08/30 06:41:16;;;;;;;2.65;0.80;;;;;;;;;;5028021;28;20050;-78
2021/08/30 06:43:43;;;;;;;0.80;0.80;;;;;;;;;;5028023;28;20061;-78
2021/08/30 06:46:09;;;;;;;1.08;0.80;;;;;;;;;;5034583;28;20049;-78
2021/08/30 06:48:36;;;;;;;1.88;1.13;;;;;;;;;;5035065;28;20120;-77
2021/08/30 06:51:04;;;;;;;1.52;0.80;;;;;;;;;;5016428;28;20077;-77
2021/08/30 06:53:31;;;;;;;3.42;0.90;;;;;;;;;;5035888;28;20041;-78
2021/08/30 06:55:57;;;;;;;0.80;0.80;;;;;;;;;;5032088;28;20033;-78
2021/08/30 06:58:24;;;;;;;0.90;0.90;;;;;;;;;;5033617;28;20072;-78
2021/08/30 07:00:51;;;;;;;4.13;0.82;;;;;;;;;;5065202;28;20496;-78
2021/08/30 07:03:18;;;;;;;1.23;0.90;;;;;;;;;;5032687;28;20044;-78
2021/08/30 07:05:45;;;;;;;1.95;0.90;;;;;;;;;;5032938;28;20033;-78
2021/08/30 07:08:12;;;;;;;0.80;0.80;;;;;;;;;;5033297;28;20038;-78
2021/08/30 07:10:39;;;;;;;1.58;0.80;;;;;;;;;;5034784;28;20103;-78
2021/08/30 07:13:06;;;;;;;1.38;0.80;;;;;;;;;;5031472;28;20037;-78
2021/08/30 07:15:33;;;;;;;1.75;0.80;;;;;;;;;;5033130;28;20064;-78
2021/08/30 07:18:00;;;;;;;1.70;0.80;;;;;;;;;;5028340;28;20490;-78
2021/08/30 07:20:27;;;;;;;0.80;0.80;;;;;;;;;;5060612;28;20045;-78
2021/08/30 07:22:54;;;;;;;1.00;1.00;;;;;;;;;;5019510;28;20053;-78
2021/08/30 07:25:21;;;;;;;2.15;0.80;;;;;;;;;;5031042;28;20046;-78
2021/08/30 07:27:48;;;;;;;0.75;0.75;;;;;;;;;;5027701;28;20042;-78
2021/08/30 07:30:15;;;;;;;1.85;0.70;;;;;;;;;;5031648;28;20034;-78
2021/08/30 07:32:43;;;;;;;0.70;0.70;;;;;;;;;;5065559;28;20088;-78
2021/08/30 07:35:10;;;;;;;0.73;0.65;;;;;;;;;;5032891;28;20069;-78
2021/08/30 07:37:37;;;;;;;0.77;0.77;;;;;;;;;;5030072;28;20049;-78
2021/08/30 07:40:04;;;;;;;1.48;0.60;;;;;;;;;;5032126;28;20103;-78
2021/08/30 07:42:31;;;;;;;0.80;0.80;;;;;;;;;;5033610;28;20152;-78
2021/08/30 07:44:58;;;;;;;0.70;0.70;;;;;;;;;;5031504;28;20073;-78
2021/08/30 07:47:24;;;;;;;0.70;0.70;;;;;;;;;;5032529;28;20049;-78
2021/08/30 07:49:52;;;;;;;0.68;0.68;;;;;;;;;;5031748;28;20033;-78
2021/08/30 07:52:20;;;;;;;1.75;0.70;;;;;;;;;;5032662;28;20103;-78
2021/08/30 07:54:48;;;;;;;0.70;0.70;;;;;;;;;;5065230;28;20497;-78
2021/08/30 07:57:15;;;;;;;0.70;0.70;;;;;;;;;;5033108;28;20045;-78
2021/08/30 07:59:41;;;;;;;0.70;0.70;;;;;;;;;;5032781;28;20045;-78
2021/08/30 08:02:08;;;;;;;0.70;0.70;;;;;;;;;;5045121;28;20564;-78
2021/08/30 08:04:35;;;;;;;0.70;0.70;;;;;;;;;;5019941;28;20397;-78
2021/08/30 08:07:02;;;;;;;0.80;0.80;;;;;;;;;;5015711;28;20103;-78
2021/08/30 08:09:30;;;;;;;0.75;0.75;;;;;;;;;;5032391;28;20091;-78
2021/08/30 08:11:57;;;;;;;1.45;0.70;;;;;;;;;;5015222;28;20120;-79
2021/08/30 08:14:24;;;;;;;4.03;0.68;;;;;;;;;;5032674;28;20041;-79
2021/08/30 08:16:51;;;;;;;0.70;0.70;;;;;;;;;;5020775;28;20407;-79
2021/08/30 08:19:18;;;;;;;0.60;0.60;;;;;;;;;;5013760;28;20044;-79
2021/08/30 08:21:46;;;;;;;1.10;0.50;;;;;;;;;;5032623;28;20065;-77
2021/08/30 08:24:13;;;;;;;0.60;0.60;;;;;;;;;;5033010;28;20092;-77
2021/08/30 08:26:40;;;;;;;0.60;0.60;;;;;;;;;;5024100;28;20490;-77
2021/08/30 08:29:07;;;;;;;0.68;0.60;;;;;;;;;;5023133;28;20509;-77
2021/08/30 08:31:34;;;;;;;2.95;0.70;;;;;;;;;;5027438;28;20033;-77
2021/08/30 08:34:01;;;;;;;0.60;0.60;;;;;;;;;;5031954;28;20042;-77
2021/08/30 08:36:28;;;;;;;0.50;0.50;;;;;;;;;;5031405;28;20037;-77
2021/08/30 08:38:55;;;;;;;0.50;0.50;;;;;;;;;;5032454;28;20103;-77
2021/08/30 08:41:21;;;;;;;0.50;0.50;;;;;;;;;;5032101;28;20042;-77
2021/08/30 08:43:52;;;;;;;0.55;0.52;;;;;;;;;;5031784;28;20038;-77
2021/08/30 08:46:18;;;;;;;0.50;0.50;;;;;;;;;;5029509;28;20045;-77
2021/08/30 08:48:45;;;;;;;0.57;0.57;;;;;;;;;;5019634;28;20091;-77
2021/08/30 08:51:13;;;;;;;0.50;0.50;;;;;;;;;;5032173;28;20124;-77
2021/08/30 08:53:40;;;;;;;0.50;0.50;;;;;;;;;;5030524;28;20029;-77
2021/08/30 08:56:07;;;;;;;0.50;0.50;;;;;;;;;;5014049;28;20092;-77
2021/08/30 08:58:34;;;;;;;0.50;0.50;;;;;;;;;;5032429;28;20037;-77
2021/08/30 09:01:10;;;;;;;1.75;0.50;;;;;;;;;;5030847;28;20041;-77
2021/08/30 09:03:49;;;;;;;0.95;0.50;;;;;;;;;;5021444;28;20050;-77
2021/08/30 09:06:27;;;;;;;0.50;0.50;;;;;;;;;;5059899;28;20309;-76
2021/08/30 09:08:58;;;;;;;0.50;0.50;;;;;;;;;;5061504;28;20048;-76
2021/08/30 09:11:32;;;;;;;0.50;0.50;;;;;;;;;;5032058;28;20042;-76
2021/08/30 09:13:59;;;;;;;1.95;0.50;;;;;;;;;;5029120;28;20042;-76
2021/08/30 09:16:26;;;;;;;2.45;0.50;;;;;;;;;;5023052;28;20041;-77
2021/08/30 09:19:03;;;;;;;1.30;0.40;;;;;;;;;;5030186;28;20120;-77
2021/08/30 09:21:30;;;;;;;3.97;1.30;;;;;;;;;;5031649;28;20033;-77
2021/08/30 09:24:07;;;;;;;0.40;0.40;;;;;;;;;;5032210;28;20049;-77
2021/08/30 09:26:41;;;;;;;0.40;0.40;;;;;;;;;;5029613;28;20033;-77
2021/08/30 09:29:13;;;;;;;0.40;0.40;;;;;;;;;;5026955;28;20034;-77
2021/08/30 09:31:40;;;;;;;0.68;0.40;;;;;;;;;;5026352;28;20038;-77
2021/08/30 09:34:10;;;;;;;1.50;0.47;;;;;;;;;;5025318;28;20485;-77
2021/08/30 09:36:43;;;;;;;0.40;0.40;;;;;;;;;;5063713;28;20041;-77
2021/08/30 09:39:09;;;;;;;0.85;0.32;;;;;;;;;;5022294;28;20046;-77
2021/08/30 09:41:36;;;;;;;0.40;0.40;;;;;;;;;;5028355;28;20041;-77
2021/08/30 09:44:04;;;;;;;0.40;0.40;;;;;;;;;;5028269;28;20076;-77
2021/08/30 09:46:32;;;;;;;0.50;0.50;;;;;;;;;;5028848;28;20045;-77
2021/08/30 09:49:16;;;;;;;0.40;0.40;;;;;;;;;;5031602;28;20034;-77
2021/08/30 09:51:43;;;;;;;0.40;0.40;;;;;;;;;;5030629;28;20041;-77
2021/08/30 09:54:12;;;;;;;1.38;0.40;;;;;;;;;;5029436;28;20041;-77
2021/08/30 09:56:39;;;;;;;0.40;0.40;;;;;;;;;;5030171;28;20125;-77
2021/08/30 09:59:07;;;;;;;0.40;0.40;;;;;;;;;;5030380;28;20478;-77
2021/08/30 10:01:38;;;;;;;0.68;0.30;;;;;;;;;;5030117;28;20053;-77
2021/08/30 10:04:07;;;;;;;0.40;0.40;;;;;;;;;;5058321;28;20037;-77
2021/08/30 10:06:37;;;;;;;0.30;0.30;;;;;;;;;;5059803;28;20041;-77
2021/08/30 10:09:10;;;;;;;0.40;0.40;;;;;;;;;;5032529;28;22114;-77
2021/08/30 10:11:37;;;;;;;1.00;0.40;;;;;;;;;;5020769;28;20045;-77
2021/08/30 10:14:05;;;;;;;0.40;0.40;;;;;;;;;;5023871;28;20042;-77
2021/08/30 10:16:33;;;;;;;1.80;0.30;;;;;;;;;;5046511;28;20092;-77
2021/08/30 10:19:00;;;;;;;0.30;0.30;;;;;;;;;;5027448;28;20034;-77
2021/08/30 10:21:27;;;;;;;0.30;0.30;;;;;;;;;;5029657;28;20079;-77
2021/08/30 10:23:54;;;;;;;0.30;0.30;;;;;;;;;;5031015;28;20042;-77
2021/08/30 10:26:22;;;;;;;1.20;0.40;;;;;;;;;;5031450;28;20056;-77
2021/08/30 10:28:49;;;;;;;0.30;0.30;;;;;;;;;;5016179;28;20069;-77
2021/08/30 10:31:18;;;;;;;0.30;0.30;;;;;;;;;;5025394;28;20557;-77
2021/08/30 10:33:47;;;;;;;1.02;0.30;;;;;;;;;;5017934;28;20092;-77
2021/08/30 10:36:14;;;;;;;0.30;0.30;;;;;;;;;;5029525;28;20096;-77
2021/08/30 10:38:41;;;;;;;0.30;0.30;;;;;;;;;;5029892;28;20119;-77
2021/08/30 10:41:17;;;;;;;0.30;0.30;;;;;;;;;;5022706;28;20045;-77
2021/08/30 10:43:45;;;;;;;0.30;0.30;;;;;;;;;;5053410;28;20050;-77
2021/08/30 10:46:14;;;;;;;0.40;0.40;;;;;;;;;;5024459;28;20103;-77
2021/08/30 10:48:47;;;;;;;0.30;0.30;;;;;;;;;;5021053;28;20100;-77
2021/08/30 10:51:27;;;;;;;0.30;0.30;;;;;;;;;;5027629;28;20035;-77
2021/08/30 10:54:01;;;;;;;0.30;0.30;;;;;;;;;;5030152;28;20194;-77
2021/08/30 10:56:29;;;;;;;0.80;0.30;;;;;;;;;;5029900;28;20082;-77
2021/08/30 10:58:59;;;;;;;0.40;0.40;;;;;;;;;;5030351;28;20033;-77
2021/08/30 11:01:25;;;;;;;0.30;0.30;;;;;;;;;;5018931;28;20065;-77
2021/08/30 11:03:58;;;;;;;0.55;0.30;;;;;;;;;;5027509;28;20104;-77
2021/08/30 11:06:25;;;;;;;0.30;0.30;;;;;;;;;;5052276;28;20060;-77
2021/08/30 11:08:52;;;;;;;0.20;0.20;;;;;;;;;;5014768;28;20474;-77
2021/08/30 11:11:26;;;;;;;0.30;0.30;;;;;;;;;;5024265;28;20066;-77
2021/08/30 11:14:13;;;;;;;0.38;0.28;;;;;;;;;;5019509;28;20033;-77
2021/08/30 11:16:40;;;;;;;0.20;0.20;;;;;;;;;;5029345;28;20033;-77
2021/08/30 11:19:08;;;;;;;0.20;0.20;;;;;;;;;;5028046;28;20037;-77
2021/08/30 11:21:37;;;;;;;1.17;0.20;;;;;;;;;;5034028;28;20041;-77
2021/08/30 11:24:05;;;;;;;0.30;0.30;;;;;;;;;;5028560;28;20105;-77
2021/08/30 11:26:34;;;;;;;0.57;0.22;;;;;;;;;;5039930;28;20084;-77
2021/08/30 11:29:04;;;;;;;0.30;0.30;;;;;;;;;;5033598;28;20049;-77
2021/08/30 11:31:35;;;;;;;0.30;0.30;;;;;;;;;;5032158;28;20092;-77
2021/08/30 11:34:02;;;;;;;0.30;0.30;;;;;;;;;;5033875;28;20055;-77
2021/08/30 11:36:28;;;;;;;0.30;0.30;;;;;;;;;;5025628;28;20108;-77
2021/08/30 11:38:56;;;;;;;0.30;0.30;;;;;;;;;;5025066;28;20044;-77
2021/08/30 11:41:24;;;;;;;0.30;0.30;;;;;;;;;;5030882;28;20099;-77
2021/08/30 11:44:04;;;;;;;0.20;0.20;;;;;;;;;;5032040;28;20041;-77
2021/08/30 11:46:40;;;;;;;0.30;0.30;;;;;;;;;;5033072;28;20124;-77
2021/08/30 11:49:07;;;;;;;1.05;0.20;;;;;;;;;;5034177;28;20045;-77
2021/08/30 11:51:37;;;;;;;0.30;0.30;;;;;;;;;;5031519;28;20032;-77
2021/08/30 11:54:03;;;;;;;0.30;0.30;;;;;;;;;;5033414;28;20057;-77
2021/08/30 11:56:34;;;;;;;0.40;0.40;;;;;;;;;;5032980;28;20115;-77
2021/08/30 11:59:01;;;;;;;0.30;0.30;;;;;;;;;;5031780;28;20111;-77
2021/08/30 12:01:35;;;;;;;1.10;0.30;;;;;;;;;;5020882;28;20041;-77
2021/08/30 12:04:13;;;;;;;0.30;0.30;;;;;;;;;;5027603;28;20038;-77
2021/08/30 12:06:45;;;;;;;0.30;0.30;;;;;;;;;;5053232;28;20030;-77
2021/08/30 12:09:12;;;;;;;0.30;0.30;;;;;;;;;;5018977;28;20422;-77
2021/08/30 12:11:49;;;;;;;0.30;0.30;;;;;;;;;;5060282;28;20033;-77
2021/08/30 12:14:16;;;;;;;0.70;0.30;;;;;;;;;;5031806;28;20038;-77
2021/08/30 12:16:45;;;;;;;1.27;0.30;;;;;;;;;;5023091;28;20100;-77
2021/08/30 12:19:12;;;;;;;0.30;0.30;;;;;;;;;;5029165;28;20040;-77
2021/08/30 12:21:39;;;;;;;0.65;0.30;;;;;;;;;;5016489;28;20048;-77
2021/08/30 12:24:09;;;;;;;0.30;0.30;;;;;;;;;;5046679;28;20068;-77
2021/08/30 12:26:38;;;;;;;0.20;0.20;;;;;;;;;;5031873;28;20430;-77
2021/08/30 12:29:05;;;;;;;2.60;0.30;;;;;;;;;;5031978;28;20053;-77
2021/08/30 12:31:33;;;;;;;0.28;0.28;;;;;;;;;;5029604;28;20440;-77
2021/08/30 12:34:12;;;;;;;0.20;0.20;;;;;;;;;;5031764;28;20042;-77
2021/08/30 12:36:39;;;;;;;0.30;0.30;;;;;;;;;;5032743;28;20036;-77
2021/08/30 12:39:06;;;;;;;0.30;0.30;;;;;;;;;;5031425;28;20053;-77
2021/08/30 12:41:33;;;;;;;0.30;0.30;;;;;;;;;;5032891;28;20037;-77
2021/08/30 12:44:00;;;;;;;0.30;0.30;;;;;;;;;;5027340;28;20048;-77
2021/08/30 12:46:28;;;;;;;0.30;0.30;;;;;;;;;;5034896;28;20398;-77
2021/08/30 12:48:54;;;;;;;0.20;0.20;;;;;;;;;;5032493;28;20111;-77
2021/08/30 12:51:24;;;;;;;0.20;0.20;;;;;;;;;;5028587;28;20051;-77
2021/08/30 12:53:51;;;;;;;0.20;0.20;;;;;;;;;;5032037;28;20042;-77
2021/08/30 12:56:18;;;;;;;0.25;0.25;;;;;;;;;;5030469;28;20121;-77
2021/08/30 12:58:45;;;;;;;0.20;0.20;;;;;;;;;;5031332;28;20123;-77
2021/08/30 13:01:12;;;;;;;0.22;0.20;;;;;;;;;;5020364;28;20103;-77
2021/08/30 13:03:39;;;;;;;0.20;0.20;;;;;;;;;;5028232;28;20038;-77
2021/08/30 13:06:05;;;;;;;1.17;0.20;;;;;;;;;;5062763;28;20050;-77
2021/08/30 13:08:32;;;;;;;0.28;0.28;;;;;;;;;;5030017;28;20068;-77
2021/08/30 13:10:59;;;;;;;0.20;0.20;;;;;;;;;;5061429;28;20048;-78
2021/08/30 13:13:26;;;;;;;0.20;0.20;;;;;;;;;;5032235;28;20036;-78
2021/08/30 13:15:54;;;;;;;0.28;0.28;;;;;;;;;;5027938;28;20462;-78
2021/08/30 13:18:21;;;;;;;0.93;0.20;;;;;;;;;;5030264;28;20075;-78
2021/08/30 13:20:49;;;;;;;0.20;0.20;;;;;;;;;;5023797;28;20057;-78
2021/08/30 13:23:16;;;;;;;0.30;0.30;;;;;;;;;;5021253;28;20389;-78
2021/08/30 13:25:43;;;;;;;0.30;0.30;;;;;;;;;;5031425;28;20095;-78
2021/08/30 13:28:11;;;;;;;0.40;0.40;;;;;;;;;;5031695;28;20052;-78
2021/08/30 13:30:38;;;;;;;0.30;0.30;;;;;;;;;;5028808;28;20072;-78
2021/08/30 13:33:06;;;;;;;1.05;0.30;;;;;;;;;;5032493;28;20038;-78
2021/08/30 13:35:33;;;;;;;0.52;0.35;;;;;;;;;;5024289;28;20091;-78
2021/08/30 13:38:00;;;;;;;0.73;0.32;;;;;;;;;;5015697;28;20080;-78
2021/08/30 13:40:28;;;;;;;0.32;0.32;;;;;;;;;;5027428;28;20029;-78
2021/08/30 13:42:55;;;;;;;0.30;0.30;;;;;;;;;;5028771;28;20037;-77
2021/08/30 13:45:23;;;;;;;0.30;0.30;;;;;;;;;;5022605;28;20074;-77
2021/08/30 13:47:50;;;;;;;0.40;0.40;;;;;;;;;;5028966;28;20068;-77
2021/08/30 13:50:17;;;;;;;0.55;0.55;;;;;;;;;;5027111;28;20041;-77
2021/08/30 13:52:43;;;;;;;0.40;0.40;;;;;;;;;;5029737;28;20538;-77
2021/08/30 13:55:10;;;;;;;0.40;0.40;;;;;;;;;;5031556;28;20103;-77
2021/08/30 13:57:38;;;;;;;1.02;0.38;;;;;;;;;;5029836;28;20566;-77
2021/08/30 14:00:05;;;;;;;1.65;0.40;;;;;;;;;;5029854;28;20466;-77
2021/08/30 14:02:33;;;;;;;1.55;0.40;;;;;;;;;;5029750;28;20037;-77
2021/08/30 14:05:01;;;;;;;0.55;0.55;;;;;;;;;;5030138;28;20045;-77
2021/08/30 14:07:28;;;;;;;0.30;0.30;;;;;;;;;;5030899;28;20045;-77
2021/08/30 14:09:55;;;;;;;0.32;0.32;;;;;;;;;;5013377;28;20433;-77
2021/08/30 14:12:22;;;;;;;0.38;0.38;;;;;;;;;;5029465;28;20033;-77
2021/08/30 14:14:49;;;;;;;0.40;0.40;;;;;;;;;;5031039;28;20103;-77
2021/08/30 14:17:16;;;;;;;0.30;0.30;;;;;;;;;;5030106;28;20064;-78
2021/08/30 14:19:44;;;;;;;5.38;1.10;;;;;;;;;;5028708;28;20033;-78
2021/08/30 14:22:11;;;;;;;2.05;0.40;;;;;;;;;;5030237;28;20513;-78
2021/08/30 14:24:38;;;;;;;5.78;0.30;;;;;;;;;;5030321;28;20454;-78
2021/08/30 14:27:04;;;;;;;0.30;0.30;;;;;;;;;;5013539;28;20429;-78
2021/08/30 14:29:31;;;;;;;0.30;0.30;;;;;;;;;;5023357;28;20045;-78
2021/08/30 14:31:58;;;;;;;0.47;0.30;;;;;;;;;;5051731;28;20191;-78
2021/08/30 14:34:24;;;;;;;1.38;0.40;;;;;;;;;;5018193;28;20096;-78
2021/08/30 14:36:51;;;;;;;1.80;0.40;;;;;;;;;;5028012;28;20489;-78
2021/08/30 14:39:18;;;;;;;0.30;0.30;;;;;;;;;;5025703;28;20033;-78
2021/08/30 14:41:45;;;;;;;1.38;0.40;;;;;;;;;;5030432;28;20099;-78
2021/08/30 14:44:11;;;;;;;0.73;0.30;;;;;;;;;;5030124;28;20375;-78
2021/08/30 14:46:38;;;;;;;1.10;0.30;;;;;;;;;;5029991;28;20045;-78
2021/08/30 14:49:05;;;;;;;0.30;0.30;;;;;;;;;;5026274;28;20781;-78
2021/08/30 14:51:32;;;;;;;0.38;0.38;;;;;;;;;;5021679;28;20034;-78
2021/08/30 14:53:58;;;;;;;0.30;0.30;;;;;;;;;;5029023;28;20056;-78
2021/08/30 14:56:25;;;;;;;0.38;0.38;;;;;;;;;;5025067;28;20484;-78
2021/08/30 14:58:52;;;;;;;0.40;0.30;;;;;;;;;;5065783;28;20038;-78